createdAt,value
2018-08-09T00:04:36.450Z,9.80
2018-08-09T00:09:39.654Z,10.50
2018-08-09T00:14:42.862Z,11.10
2018-08-09T00:19:46.069Z,10.23
2018-08-09T00:24:49.382Z,10.30
2018-08-09T00:29:52.590Z,9.97
2018-08-09T00:34:55.795Z,11.25
2018-08-09T00:39:58.998Z,11.65
2018-08-09T00:45:02.214Z,12.90
2018-08-09T00:50:05.702Z,13.90
2018-08-09T00:55:09.756Z,13.18
2018-08-09T01:00:12.978Z,13.88
2018-08-09T01:05:16.195Z,12.67
2018-08-09T01:10:19.413Z,13.20
2018-08-09T01:15:22.622Z,12.50
2018-08-09T01:20:25.832Z,12.07
2018-08-09T01:25:29.039Z,12.82
2018-08-09T01:30:32.254Z,12.47
2018-08-09T01:35:35.478Z,13.30
2018-08-09T01:40:38.759Z,13.20
2018-08-09T01:45:41.949Z,13.25
2018-08-09T01:50:45.125Z,13.55
2018-08-09T01:55:48.347Z,12.88
2018-08-09T02:00:51.575Z,13.30
2018-08-09T02:05:54.787Z,13.20
2018-08-09T02:10:58.013Z,13.27
2018-08-09T02:16:01.219Z,12.45
2018-08-09T02:21:04.429Z,13.07
2018-08-09T02:26:07.626Z,13.72
2018-08-09T02:31:10.818Z,13.77
2018-08-09T02:36:14.030Z,14.75
2018-08-09T02:41:17.225Z,17.40
2018-08-09T02:46:20.489Z,16.15
2018-08-09T02:51:23.686Z,18.43
2018-08-09T02:56:26.953Z,16.10
2018-08-09T03:01:30.134Z,18.03
2018-08-09T03:06:33.347Z,18.77
2018-08-09T03:11:36.573Z,18.25
2018-08-09T03:16:39.826Z,16.42
2018-08-09T03:21:43.034Z,16.03
2018-08-09T03:26:46.258Z,16.67
2018-08-09T03:31:49.547Z,17.17
2018-08-09T03:36:52.783Z,16.93
2018-08-09T03:41:55.986Z,18.47
2018-08-09T03:46:59.198Z,15.35
2018-08-09T03:52:02.467Z,16.67
2018-08-09T03:57:05.793Z,16.52
2018-08-09T04:02:08.995Z,14.90
2018-08-09T04:07:12.235Z,15.98
2018-08-09T04:12:15.429Z,17.80
2018-08-09T04:17:20.691Z,18.10
2018-08-09T04:22:23.879Z,21.40
2018-08-09T04:27:27.116Z,21.87
2018-08-09T04:32:30.299Z,18.07
2018-08-09T04:37:33.510Z,19.15
2018-08-09T04:42:37.585Z,17.27
2018-08-09T04:47:40.807Z,17.07
2018-08-09T04:52:44.053Z,15.53
2018-08-09T04:57:47.275Z,16.10
2018-08-09T05:02:50.519Z,17.60
2018-08-09T05:07:53.737Z,17.30
2018-08-09T05:12:56.974Z,17.62
2018-08-09T05:18:00.199Z,15.00
2018-08-09T05:23:03.737Z,16.82
2018-08-09T05:28:07.393Z,17.45
2018-08-09T05:33:10.613Z,15.10
2018-08-09T05:38:13.854Z,16.60
2018-08-09T05:43:17.140Z,16.95
2018-08-09T05:48:20.339Z,16.37
2018-08-09T05:53:23.559Z,16.50
2018-08-09T05:58:26.807Z,15.63
2018-08-09T06:03:30.046Z,14.60
2018-08-09T06:08:33.281Z,14.47
2018-08-09T06:13:36.487Z,12.60
2018-08-09T06:18:39.705Z,12.77
2018-08-09T06:23:42.903Z,12.50
2018-08-09T06:28:46.127Z,11.60
2018-08-09T06:33:49.329Z,11.90
2018-08-09T06:38:52.526Z,12.43
2018-08-09T06:43:55.924Z,12.15
2018-08-09T06:48:59.167Z,13.30
2018-08-09T06:54:02.374Z,13.83
2018-08-09T06:59:05.595Z,11.83
2018-08-09T07:04:08.793Z,10.68
2018-08-09T07:09:12.120Z,10.82
2018-08-09T07:14:15.371Z,11.63
2018-08-09T07:19:18.599Z,11.53
2018-08-09T07:24:21.991Z,12.30
2018-08-09T07:29:25.199Z,12.20
2018-08-09T07:34:28.430Z,11.10
2018-08-09T07:39:31.691Z,10.88
2018-08-09T07:44:34.862Z,10.48
2018-08-09T07:49:38.099Z,10.10
2018-08-09T07:54:41.308Z,10.93
2018-08-09T07:59:44.507Z,10.08
2018-08-09T08:04:47.715Z,7.83
2018-08-09T08:09:50.885Z,7.35
2018-08-09T08:14:54.094Z,5.58
2018-08-09T08:19:57.280Z,6.40
2018-08-09T08:25:00.506Z,6.40
2018-08-09T08:30:05.274Z,5.53
2018-08-09T08:35:08.519Z,5.85
2018-08-09T08:40:11.749Z,5.53
2018-08-09T08:45:14.987Z,5.53
2018-08-09T08:50:18.218Z,5.75
2018-08-09T08:55:21.455Z,5.70
2018-08-09T09:00:24.674Z,5.80
2018-08-09T09:05:27.921Z,5.28
2018-08-09T09:10:31.121Z,4.75
2018-08-09T09:15:34.487Z,4.75
2018-08-09T09:20:37.684Z,4.78
2018-08-09T09:25:40.891Z,5.30
2018-08-09T09:30:44.131Z,5.00
2018-08-09T09:35:47.360Z,4.80
2018-08-09T09:40:50.545Z,4.90
2018-08-09T09:45:53.781Z,4.50
2018-08-09T09:50:57.675Z,5.58
2018-08-09T09:56:01.000Z,4.93
2018-08-09T10:01:09.489Z,5.90
2018-08-09T10:06:12.698Z,4.80
2018-08-09T10:11:16.505Z,5.43
2018-08-09T10:16:19.710Z,5.67
2018-08-09T10:21:22.929Z,6.33
2018-08-09T10:26:26.141Z,6.67
2018-08-09T10:31:29.379Z,6.72
2018-08-09T10:36:32.922Z,7.65
2018-08-09T10:41:36.258Z,6.90
2018-08-09T10:46:39.475Z,6.57
2018-08-09T10:51:42.706Z,8.47
2018-08-09T10:56:45.933Z,9.87
2018-08-09T11:01:49.189Z,9.48
2018-08-09T11:06:52.363Z,11.30
2018-08-09T11:11:55.598Z,14.35
2018-08-09T11:16:58.886Z,17.40
2018-08-09T11:22:02.059Z,17.73
2018-08-09T11:27:05.287Z,15.90
2018-08-09T11:32:08.522Z,17.10
2018-08-09T11:37:11.771Z,14.30
2018-08-09T11:42:15.181Z,14.90
2018-08-09T11:47:18.538Z,15.58
2018-08-09T11:52:21.878Z,16.50
2018-08-09T11:57:25.105Z,17.02
2018-08-09T12:02:28.322Z,17.70
2018-08-09T12:07:31.539Z,17.05
2018-08-09T12:12:34.755Z,17.52
2018-08-09T12:17:38.032Z,15.30
2018-08-09T12:22:41.282Z,18.27
2018-08-09T12:27:44.544Z,17.67
2018-08-09T12:32:47.867Z,17.80
2018-08-09T12:37:51.104Z,19.42
2018-08-09T12:42:54.354Z,20.08
2018-08-09T12:47:57.578Z,19.60
2018-08-09T12:53:01.471Z,18.92
2018-08-09T12:58:04.732Z,20.50
2018-08-09T13:03:08.286Z,20.27
2018-08-09T13:08:11.518Z,19.98
2018-08-09T13:13:14.800Z,18.05
2018-08-09T13:18:18.021Z,19.05
2018-08-09T13:23:21.288Z,18.10
2018-08-09T13:28:24.471Z,17.77
2018-08-09T13:33:27.679Z,16.32
2018-08-09T13:38:30.914Z,15.10
2018-08-09T13:43:34.113Z,14.15
2018-08-09T13:48:37.351Z,6.60
2018-08-09T13:53:40.556Z,6.37
2018-08-09T13:58:43.802Z,7.53
2018-08-09T14:03:47.019Z,7.50
2018-08-09T14:08:50.295Z,7.90
2018-08-09T14:13:53.591Z,8.48
2018-08-09T14:18:56.881Z,10.32
2018-08-09T14:24:00.488Z,9.20
2018-08-09T14:29:03.787Z,10.10
2018-08-09T14:34:07.135Z,12.07
2018-08-09T14:39:11.328Z,9.90
2018-08-09T14:44:14.523Z,9.13
2018-08-09T14:49:17.725Z,8.90
2018-08-09T14:54:20.959Z,8.48
2018-08-09T14:59:24.124Z,9.08
2018-08-09T15:04:27.349Z,9.63
2018-08-09T15:09:30.593Z,10.53
2018-08-09T15:14:33.838Z,10.25
2018-08-09T15:19:37.081Z,10.58
2018-08-09T15:24:40.295Z,8.10
2018-08-09T15:29:43.491Z,6.92
2018-08-09T15:34:46.729Z,6.65
2018-08-09T15:39:49.970Z,6.47
2018-08-09T15:44:53.308Z,5.97
2018-08-09T15:49:56.583Z,7.50
2018-08-09T15:54:59.801Z,8.00
2018-08-09T16:00:03.071Z,9.80
2018-08-09T16:05:06.648Z,11.60
2018-08-09T16:10:13.149Z,5.70
2018-08-09T16:15:17.493Z,5.75
2018-08-09T16:20:20.736Z,8.25
2018-08-09T16:25:23.973Z,7.33
2018-08-09T16:30:27.350Z,7.37
2018-08-09T16:35:30.554Z,6.05
2018-08-09T16:40:33.772Z,5.40
2018-08-09T16:45:36.985Z,6.25
2018-08-09T16:50:40.602Z,5.83
2018-08-09T16:55:43.832Z,5.58
2018-08-09T17:00:47.056Z,6.42
2018-08-09T17:05:50.271Z,5.70
2018-08-09T17:10:53.821Z,7.08
2018-08-09T17:15:57.604Z,7.10
2018-08-09T17:21:00.826Z,6.62
2018-08-09T17:26:04.066Z,6.50
2018-08-09T17:31:07.418Z,8.03
2018-08-09T17:36:10.616Z,7.00
2018-08-09T17:41:13.862Z,5.17
2018-08-09T17:46:17.136Z,5.30
2018-08-09T17:51:20.321Z,4.90
2018-08-09T17:56:23.554Z,4.40
2018-08-09T18:01:26.795Z,3.92
2018-08-09T18:06:30.095Z,3.67
2018-08-09T18:11:33.291Z,3.87
2018-08-09T18:16:37.235Z,3.10
2018-08-09T18:21:41.100Z,3.20
2018-08-09T18:26:44.379Z,3.05
2018-08-09T18:31:47.603Z,2.10
2018-08-09T18:36:50.847Z,2.37
2018-08-09T18:41:54.042Z,2.30
2018-08-09T18:46:57.287Z,2.17
2018-08-09T18:52:00.566Z,2.42
2018-08-09T18:57:05.259Z,2.22
2018-08-09T19:02:08.470Z,2.67
2018-08-09T19:07:11.668Z,3.30
2018-08-09T19:12:14.912Z,3.15
2018-08-09T19:17:18.123Z,3.70
2018-08-09T19:22:21.348Z,7.97
2018-08-09T19:27:24.740Z,4.55
2018-08-09T19:32:27.863Z,4.53
2018-08-09T19:37:31.050Z,4.80
2018-08-09T19:42:34.270Z,4.50
2018-08-09T19:47:37.947Z,4.40
2018-08-09T19:52:41.208Z,3.80
2018-08-09T19:57:45.479Z,2.70
2018-08-09T20:02:49.201Z,2.00
2018-08-09T20:07:52.411Z,1.92
2018-08-09T20:12:55.608Z,2.07
2018-08-09T20:17:58.874Z,1.90
2018-08-09T20:23:02.095Z,2.20
2018-08-09T20:28:05.661Z,2.30
2018-08-09T20:33:08.887Z,3.72
2018-08-09T20:38:12.191Z,3.30
2018-08-09T20:43:15.369Z,4.28
2018-08-09T20:48:18.590Z,4.30
2018-08-09T20:53:21.801Z,5.57
2018-08-09T20:58:25.047Z,6.20
2018-08-09T21:03:28.278Z,7.20
2018-08-09T21:08:31.473Z,7.00
2018-08-09T21:13:34.695Z,5.85
2018-08-09T21:18:37.923Z,5.55
2018-08-09T21:23:41.127Z,3.93
2018-08-09T21:28:44.399Z,3.00
2018-08-09T21:33:47.642Z,3.40
2018-08-09T21:38:50.913Z,4.77
2018-08-09T21:43:54.078Z,5.05
2018-08-09T21:48:57.319Z,6.00
2018-08-09T21:54:00.518Z,6.50
2018-08-09T21:59:03.719Z,6.83
2018-08-09T22:04:06.935Z,7.20
2018-08-09T22:09:15.665Z,7.40
2018-08-09T22:14:24.576Z,7.22
2018-08-09T22:19:33.260Z,8.80
2018-08-09T22:24:36.499Z,8.10
2018-08-09T22:29:39.698Z,7.47
2018-08-09T22:34:43.165Z,7.03
2018-08-09T22:39:46.366Z,7.10
2018-08-09T22:44:49.580Z,7.53
2018-08-09T22:49:52.837Z,6.10
2018-08-09T22:54:56.134Z,4.87
2018-08-09T22:59:59.369Z,3.98
2018-08-09T23:05:02.644Z,3.70
2018-08-09T23:10:06.510Z,4.30
2018-08-09T23:15:10.334Z,4.20
2018-08-09T23:20:13.561Z,3.37
2018-08-09T23:25:16.814Z,3.95
2018-08-09T23:30:20.016Z,4.37
2018-08-09T23:35:23.239Z,4.83
2018-08-09T23:40:26.438Z,6.37
2018-08-09T23:45:29.669Z,7.47
2018-08-09T23:50:32.904Z,7.73
2018-08-09T23:55:36.147Z,7.92
